Galesburg, MI (49053)

1:46 PM EST on December 08, 2016 (GMT -0500)
Fleetwood | | Change Station
Active Advisory: Winter Storm Warning

Elev 801 ft 42.29 °N, 85.43 °W | Updated 13 seconds ago

Snow
Snow
25.0 °F
Feels Like 25 °F
N
2.9
Wind Variable Wind from SSW
Gusts 4.9 mph

Today
High -- | Low -- °F
--% Chance of Precip.
Yesterday
High -- | Low -- °F
Precip. -- in
Pressure 30.16 in
Visibility 3.0 miles
Clouds Overcast 1400 ft
Windchill 25 °F
Dew Point 2 °F
Humidity 36%
Rainfall 0.00 in
Snow Depth Not available.
7:58 AM 5:09 PM
Waxing Gibbous, 65% visible
SPECI KAZO 081823Z 27012KT 3SM -SN OVC014 M04/M08 A3016 RMK AO2 VIS 1V3 P0000 T10441083
Pressure 30.16 in
Visibility 3.0 miles
Clouds Overcast 1400 ft
Windchill 25 °F
Dew Point 2 °F
Humidity 36%
Rainfall 0.00 in
Snow Depth Not available.
7:58 AM 5:09 PM
Waxing Gibbous, 65% visible
SPECI KAZO 081823Z 27012KT 3SM -SN OVC014 M04/M08 A3016 RMK AO2 VIS 1V3 P0000 T10441083

10-Day Weather Forecast

Almanac

Astronomy

Dec. 08, 2016 Rise Set
Actual Time
Civil Twilight
Nautical Twilight
Astronomical Twilight
Moon
Length of Visible Light
Length of Day
Tomorrow will be .
, % of the Moon is Illuminated

Today's Extremes

State Highs State Lows

Community

WunderPhotos

Upload Photos

1,956,277 photos uploaded!

WunderBlog® & News

Nearby

Air Quality

  Air Quality AQ Index Pollutant
Not available.

Snow Depth

Station Depth Elevation

Earthquake Activity

City Distance Mag. Time & Date
Minimum magnitude displayed is 2.5.

Coastal Water Temperatures

Place Temperature

Stations

Nearby Weather Stations

Station Location Temp. Windchill Dew Point Humidity Wind Precip. Elev Updated Type
                   

Watches & Warnings

Winter Storm Warning
Issued: 11:43 AM EST Dec. 8, 2016 – National Weather Service

... Winter Storm Warning remains in effect until 4 PM EST Friday...

Hazardous weather...

* snow showers will continue into tonight and Friday.

* Snowfall totals up to a foot are expected by late Friday.

* Gusty west to northwest winds will result in blowing and
   drifting snow through this evening.

* Wind chill readings 10 to 15 above zero.

* Near whiteout conditions are possible as visibilities will be
   changing rapidly.

Impacts...

* roads will become snow covered and slippery.

* Longer commute times.

Precautionary/preparedness actions...

* the Michigan Department of Transportation reminds motorists
   to adjust speeds based on the conditions... and to take it
   slow in ice and snow.

* Weather preparedness information is available online at:
   www.Ready.Gov/winter.